Time;durP1;ratioP1;P1;durP2;ratioP2;P2;SDS_P1;SDS_P2;PMS_P1;PMS_P2;Temp;Humidity;BMP_temperature;BMP_pressure;BME280_temperature;BME280_humidity;BME280_pressure;Samples;Min_cycle;Max_cycle;Signal;HPM_P1;HPM_P2
2023/03/29 00:01:06;;;;;;;;;;;;;;;10.30;29.57;98822.59;5098276;28;19923;-76
2023/03/29 00:03:32;;;;;;;;;;;;;;;10.27;29.57;98830.66;5116121;28;19916;-76
2023/03/29 00:06:04;;;;;;;;;;;;;;;10.24;29.61;98843.09;5098218;28;19973;-76
2023/03/29 00:08:30;;;;;;;;;;;;;;;10.21;29.72;98838.09;5081319;28;19926;-76
2023/03/29 00:10:57;;;;;;;;;;;;;;;10.23;29.65;98844.03;5080822;28;19916;-76
2023/03/29 00:13:23;;;;;;;;;;;;;;;10.19;29.61;98827.78;5081505;28;19916;-76
2023/03/29 00:15:48;;;;;;;;;;;;;;;10.16;29.93;98825.41;5080635;28;20515;-75
2023/03/29 00:18:13;;;;;;;;;;;;;;;10.13;29.64;98833.44;5097619;28;19923;-75
2023/03/29 00:20:39;;;;;;;;;;;;;;;10.11;29.72;98832.72;5079885;28;19915;-76
2023/03/29 00:23:05;;;;;;;;;;;;;;;10.08;29.88;98840.78;5080615;28;19916;-76
2023/03/29 00:25:30;;;;;;;;;;;;;;;10.05;29.96;98846.22;5097670;28;20008;-76
2023/03/29 00:27:56;;;;;;;;;;;;;;;10.01;29.94;98852.59;5080031;28;19981;-76
2023/03/29 00:30:21;;;;;;;;;;;;;;;10.00;29.98;98850.94;5116005;28;19924;-76
2023/03/29 00:32:46;;;;;;;;;;;;;;;9.94;29.76;98842.59;5097243;28;19967;-76
2023/03/29 00:35:12;;;;;;;;;;;;;;;9.91;29.90;98845.41;5080394;28;20381;-75
2023/03/29 00:37:37;;;;;;;;;;;;;;;9.89;29.82;98857.75;5115518;28;19916;-76
2023/03/29 00:40:07;;;;;;;;;;;;;;;9.86;29.84;98854.53;5097215;28;20443;-76
2023/03/29 00:42:32;;;;;;;;;;;;;;;9.82;29.87;98851.31;5097764;28;19926;-76
2023/03/29 00:44:59;;;;;;;;;;;;;;;9.82;29.97;98855.69;5115085;28;19916;-75
2023/03/29 00:47:24;;;;;;;;;;;;;;;9.77;30.01;98846.44;5097296;28;19916;-74
2023/03/29 00:49:51;;;;;;;;;;;;;;;9.79;30.00;98854.13;5096952;28;20310;-76
2023/03/29 00:52:17;;;;;;;;;;;;;;;9.76;30.01;98870.00;5097328;28;19916;-76
2023/03/29 00:54:42;;;;;;;;;;;;;;;9.73;30.16;98867.59;5097039;28;19963;-76
2023/03/29 00:57:08;;;;;;;;;;;;;;;9.71;30.13;98861.66;5079784;28;19974;-76
2023/03/29 00:59:34;;;;;;;;;;;;;;;9.68;30.22;98878.34;5097065;28;19939;-76
2023/03/29 01:02:04;;;;;;;;;;;;;;;9.67;30.06;98876.69;5096989;28;20015;-76
2023/03/29 01:04:41;;;;;;;;;;;;;;;9.65;30.20;98888.16;5096299;28;20390;-77
2023/03/29 01:07:16;;;;;;;;;;;;;;;9.64;30.37;98899.53;5096259;28;19919;-76
2023/03/29 01:09:42;;;;;;;;;;;;;;;9.62;30.38;98893.59;5097632;28;20014;-76
2023/03/29 01:12:11;;;;;;;;;;;;;;;9.59;30.40;98900.66;5076281;28;20028;-77
2023/03/29 01:14:36;;;;;;;;;;;;;;;9.58;30.27;98908.59;5076295;28;19924;-76
2023/03/29 01:17:03;;;;;;;;;;;;;;;9.56;30.53;98913.09;5094760;28;19920;-77
2023/03/29 01:19:29;;;;;;;;;;;;;;;9.55;30.41;98922.69;5093253;28;19965;-77
2023/03/29 01:22:05;;;;;;;;;;;;;;;9.54;30.43;98917.59;5093602;28;19923;-77
2023/03/29 01:24:40;;;;;;;;;;;;;;;9.50;30.53;98908.28;5093443;28;19916;-77
2023/03/29 01:27:06;;;;;;;;;;;;;;;9.48;30.71;98920.59;5094370;28;20311;-76
2023/03/29 01:29:40;;;;;;;;;;;;;;;9.47;30.75;98927.59;5094274;28;19928;-77
2023/03/29 01:32:10;;;;;;;;;;;;;;;9.45;30.80;98929.47;5094056;28;20003;-77
2023/03/29 01:34:56;;;;;;;;;;;;;;;9.43;31.01;98931.34;5092893;28;19923;-77
2023/03/29 01:37:29;;;;;;;;;;;;;;;9.41;30.99;98934.06;5093030;28;20059;-77
2023/03/29 01:39:54;;;;;;;;;;;;;;;9.39;30.77;98942.91;5092783;28;20367;-77
2023/03/29 01:42:22;;;;;;;;;;;;;;;9.37;30.37;98935.19;5092850;28;19916;-77
2023/03/29 01:44:47;;;;;;;;;;;;;;;9.36;30.51;98940.50;5093785;28;20407;-77
2023/03/29 01:47:16;;;;;;;;;;;;;;;9.34;30.62;98947.59;5093863;28;19924;-77
2023/03/29 01:49:44;;;;;;;;;;;;;;;9.32;30.86;98947.69;5093928;28;19916;-77
2023/03/29 01:52:23;;;;;;;;;;;;;;;9.32;30.70;98952.09;5092814;28;19923;-77
2023/03/29 01:54:59;;;;;;;;;;;;;;;9.30;30.62;98957.41;5093653;28;19916;-77
2023/03/29 01:57:25;;;;;;;;;;;;;;;9.27;30.54;98962.00;5092808;28;19916;-77
2023/03/29 01:59:50;;;;;;;;;;;;;;;9.23;30.92;98945.72;5075853;28;19922;-76
2023/03/29 02:02:15;;;;;;;;;;;;;;;9.22;30.84;98951.88;5092236;28;19969;-77
2023/03/29 02:04:46;;;;;;;;;;;;;;;9.22;30.81;98949.28;5075459;28;19920;-76
2023/03/29 02:07:12;;;;;;;;;;;;;;;9.19;30.52;98958.13;5092256;28;19924;-77
2023/03/29 02:09:37;;;;;;;;;;;;;;;9.18;30.86;98946.03;5075511;28;19922;-74
2023/03/29 02:12:03;;;;;;;;;;;;;;;9.17;30.51;98943.53;5092513;28;20394;-77
2023/03/29 02:14:29;;;;;;;;;;;;;;;9.15;30.58;98937.59;5093495;28;19916;-77
2023/03/29 02:16:54;;;;;;;;;;;;;;;9.12;30.49;98951.63;5092545;28;20386;-78
2023/03/29 02:19:20;;;;;;;;;;;;;;;9.09;30.65;98941.44;5091596;28;19922;-77
2023/03/29 02:21:57;;;;;;;;;;;;;;;9.07;30.52;98952.91;5075142;28;20288;-77
2023/03/29 02:24:22;;;;;;;;;;;;;;;9.06;30.62;98959.84;5091996;28;19924;-77
2023/03/29 02:26:47;;;;;;;;;;;;;;;9.05;30.46;98964.25;5091967;28;19923;-77
2023/03/29 02:29:13;;;;;;;;;;;;;;;9.03;30.44;98953.09;5092158;28;20292;-77
2023/03/29 02:31:42;;;;;;;;;;;;;;;9.02;30.05;98971.44;5092358;28;20381;-77
2023/03/29 02:34:16;;;;;;;;;;;;;;;9.04;30.27;98974.75;5075034;28;19916;-77
2023/03/29 02:36:43;;;;;;;;;;;;;;;9.01;30.29;98977.56;5074852;28;19926;-77
2023/03/29 02:39:09;;;;;;;;;;;;;;;8.99;30.13;98980.25;5074837;28;19916;-77
2023/03/29 02:41:35;;;;;;;;;;;;;;;8.99;30.28;98985.47;5092159;28;19916;-77
2023/03/29 02:44:01;;;;;;;;;;;;;;;8.98;29.92;98991.63;5074421;28;19923;-77
2023/03/29 02:46:26;;;;;;;;;;;;;;;8.96;30.01;98996.09;5075283;28;19916;-77
2023/03/29 02:48:51;;;;;;;;;;;;;;;8.96;30.34;98997.88;5092356;28;20373;-77
2023/03/29 02:51:18;;;;;;;;;;;;;;;8.94;30.05;99002.34;5092917;28;19923;-76
2023/03/29 02:53:51;;;;;;;;;;;;;;;8.92;30.19;99010.25;5092590;28;19919;-77
2023/03/29 02:56:17;;;;;;;;;;;;;;;8.93;30.24;99006.69;5075599;28;20024;-77
2023/03/29 02:58:43;;;;;;;;;;;;;;;8.92;30.10;99005.06;5074763;28;20018;-77
2023/03/29 03:01:09;;;;;;;;;;;;;;;8.90;30.29;99013.88;5091493;28;19962;-77
2023/03/29 03:03:34;;;;;;;;;;;;;;;8.87;29.94;99010.56;5092720;28;20412;-76
2023/03/29 03:06:00;;;;;;;;;;;;;;;8.86;29.99;99021.91;5092664;28;19916;-76
2023/03/29 03:08:25;;;;;;;;;;;;;;;8.85;30.20;99025.41;5091328;28;19958;-76
2023/03/29 03:10:51;;;;;;;;;;;;;;;8.85;30.26;99028.03;5092411;28;19917;-76
2023/03/29 03:13:16;;;;;;;;;;;;;;;8.83;30.14;99022.09;5074190;28;19917;-76
2023/03/29 03:15:41;;;;;;;;;;;;;;;8.82;29.74;99038.66;5074592;28;20309;-76
2023/03/29 03:18:08;;;;;;;;;;;;;;;8.77;30.00;99025.09;5091488;28;19916;-76
2023/03/29 03:20:34;;;;;;;;;;;;;;;8.76;29.69;99030.38;5091318;28;20383;-76
2023/03/29 03:23:02;;;;;;;;;;;;;;;8.75;30.02;99037.38;5092462;28;19946;-75
2023/03/29 03:25:27;;;;;;;;;;;;;;;8.73;29.96;99041.00;5090536;28;20073;-74
2023/03/29 03:27:53;;;;;;;;;;;;;;;8.72;29.46;99052.34;5074133;28;20338;-73
2023/03/29 03:30:19;;;;;;;;;;;;;;;8.70;29.61;99044.66;5074273;28;19929;-73
2023/03/29 03:32:44;;;;;;;;;;;;;;;8.68;29.59;99059.50;5095469;28;19916;-74
2023/03/29 03:35:10;;;;;;;;;;;;;;;8.67;29.68;99047.44;5077211;28;20397;-74
2023/03/29 03:37:37;;;;;;;;;;;;;;;8.64;29.89;99055.44;5077780;28;20402;-74
2023/03/29 03:40:03;;;;;;;;;;;;;;;8.63;29.74;99051.16;5077818;28;19920;-74
2023/03/29 03:42:28;;;;;;;;;;;;;;;8.59;29.63;99050.53;5078002;28;19959;-74
2023/03/29 03:44:54;;;;;;;;;;;;;;;8.58;29.78;99053.22;5095082;28;20016;-73
2023/03/29 03:47:20;;;;;;;;;;;;;;;8.56;29.65;99060.31;5077800;28;19916;-71
2023/03/29 03:49:45;;;;;;;;;;;;;;;8.55;30.21;99051.63;5095853;28;19916;-72
2023/03/29 03:52:11;;;;;;;;;;;;;;;8.56;29.93;99060.31;5094809;28;19980;-72
2023/03/29 03:54:36;;;;;;;;;;;;;;;8.54;29.82;99060.41;5094786;28;20438;-77
2023/03/29 03:57:02;;;;;;;;;;;;;;;8.53;29.51;99063.91;5094690;28;20003;-77
2023/03/29 03:59:27;;;;;;;;;;;;;;;8.60;38.53;99062.63;5077726;28;19939;-81
2023/03/29 04:01:53;;;;;;;;;;;;;;;8.81;42.70;99086.44;5095858;28;19939;-81
2023/03/29 04:04:18;;;;;;;;;;;;;;;8.82;40.85;99088.13;5094515;28;19916;-72
2023/03/29 04:06:44;;;;;;;;;;;;;;;8.87;45.84;99100.81;5096964;28;19984;-78
2023/03/29 04:09:10;;;;;;;;;;;;;;;8.96;40.06;99105.44;5081864;28;20370;-75
2023/03/29 04:11:35;;;;;;;;;;;;;;;8.93;39.23;99103.03;5094571;28;19920;-75
2023/03/29 04:14:01;;;;;;;;;;;;;;;8.84;37.61;99112.28;5095659;28;20393;-76
2023/03/29 04:16:27;;;;;;;;;;;;;;;8.79;36.83;99114.34;5077070;28;19916;-77
2023/03/29 04:18:52;;;;;;;;;;;;;;;8.74;36.03;99112.94;5094244;28;19921;-77
2023/03/29 04:21:17;;;;;;;;;;;;;;;8.77;34.95;99104.94;5077185;28;19959;-75
2023/03/29 04:23:45;;;;;;;;;;;;;;;9.35;56.01;99122.06;5094398;28;19923;-77
2023/03/29 04:26:10;;;;;;;;;;;;;;;9.65;42.72;99120.97;5093975;28;19916;-78
2023/03/29 04:28:36;;;;;;;;;;;;;;;9.79;39.92;99125.28;5095793;28;19931;-79
2023/03/29 04:31:02;;;;;;;;;;;;;;;9.56;39.09;99125.00;5094950;28;19920;-78
2023/03/29 04:33:28;;;;;;;;;;;;;;;9.48;37.55;99132.50;5076967;28;19916;-77
2023/03/29 04:35:53;;;;;;;;;;;;;;;9.43;36.83;99126.78;5077114;28;19916;-76
2023/03/29 04:38:21;;;;;;;;;;;;;;;10.00;35.15;99133.44;5093951;28;19923;-77
2023/03/29 04:40:47;;;;;;;;;;;;;;;10.44;33.09;99136.59;5095119;28;19923;-77
2023/03/29 04:43:13;;;;;;;;;;;;;;;10.43;32.82;99154.00;5092860;28;19916;-76
2023/03/29 04:45:38;;;;;;;;;;;;;;;10.23;32.30;99144.06;5093752;28;19923;-78
2023/03/29 04:48:04;;;;;;;;;;;;;;;10.13;32.09;99149.91;5076878;28;19977;-84
2023/03/29 04:50:30;;;;;;;;;;;;;;;10.23;31.74;99150.13;5077883;28;19916;-80
2023/03/29 04:52:56;;;;;;;;;;;;;;;11.60;29.28;99150.06;5094751;28;20304;-86
2023/03/29 04:55:21;;;;;;;;;;;;;;;13.24;26.62;99161.13;5094214;28;19920;-81
2023/03/29 04:57:46;;;;;;;;;;;;;;;14.86;24.12;99158.16;5095073;28;19938;-73
2023/03/29 05:00:15;;;;;;;;;;;;;;;16.19;22.05;99153.22;5095370;28;19927;-80
2023/03/29 05:02:44;;;;;;;;;;;;;;;17.36;20.82;99168.47;5076991;28;19923;-83
2023/03/29 05:05:09;;;;;;;;;;;;;;;18.40;19.47;99172.25;5093120;28;19916;-82
2023/03/29 05:07:35;;;;;;;;;;;;;;;19.29;18.34;99175.44;5094832;28;19924;-81
2023/03/29 05:10:00;;;;;;;;;;;;;;;20.07;17.35;99173.34;5093544;28;20517;-81
2023/03/29 05:12:26;;;;;;;;;;;;;;;20.78;16.51;99181.50;5093484;28;19923;-82
2023/03/29 05:14:51;;;;;;;;;;;;;;;21.44;16.20;99183.78;5095192;28;20007;-82
2023/03/29 05:17:16;;;;;;;;;;;;;;;21.96;15.36;99180.41;5094061;28;19926;-82
2023/03/29 05:19:42;;;;;;;;;;;;;;;22.50;15.18;99173.25;5093583;28;19920;-82
2023/03/29 05:22:07;;;;;;;;;;;;;;;22.85;14.35;99182.34;5076545;28;19923;-83
2023/03/29 05:24:33;;;;;;;;;;;;;;;23.22;14.16;99185.84;5093641;28;19923;-82
2023/03/29 05:26:58;;;;;;;;;;;;;;;23.62;13.94;99182.78;5093740;28;19920;-82
2023/03/29 05:29:24;;;;;;;;;;;;;;;23.96;13.45;99198.09;5095079;28;19982;-85
2023/03/29 05:31:49;;;;;;;;;;;;;;;24.26;13.45;99192.56;5078709;28;20379;-84
2023/03/29 05:34:14;;;;;;;;;;;;;;;24.54;13.06;99186.34;5093633;28;19927;-85
2023/03/29 05:36:41;;;;;;;;;;;;;;;24.72;13.18;99188.56;5075885;28;19916;-80
2023/03/29 05:39:06;;;;;;;;;;;;;;;24.97;12.54;99188.88;5093289;28;19916;-81
2023/03/29 05:41:33;;;;;;;;;;;;;;;25.17;12.71;99191.59;5075923;28;20397;-79
2023/03/29 05:43:58;;;;;;;;;;;;;;;25.37;12.49;99194.34;5075700;28;19916;-77
2023/03/29 05:46:24;;;;;;;;;;;;;;;25.52;12.42;99186.16;5092424;28;20279;-78
2023/03/29 05:48:49;;;;;;;;;;;;;;;25.69;12.35;99193.78;5074383;28;19916;-77
2023/03/29 05:51:14;;;;;;;;;;;;;;;25.88;12.35;99202.84;5075825;28;19923;-78
2023/03/29 05:53:40;;;;;;;;;;;;;;;26.05;11.95;99184.59;5075826;28;20353;-78
2023/03/29 05:56:07;;;;;;;;;;;;;;;26.18;12.24;99195.25;5093798;28;19916;-80
2023/03/29 05:58:32;;;;;;;;;;;;;;;26.33;12.10;99195.88;5075625;28;19924;-80
2023/03/29 06:00:59;;;;;;;;;;;;;;;26.44;11.64;99202.44;5093681;28;19916;-76
2023/03/29 06:03:26;;;;;;;;;;;;;;;26.50;11.83;99203.44;5092314;28;19916;-78
2023/03/29 06:06:09;;;;;;;;;;;;;;;26.58;11.81;99199.72;5075875;28;19924;-78
2023/03/29 06:08:35;;;;;;;;;;;;;;;26.71;11.48;99199.72;5075890;28;20421;-78
2023/03/29 06:11:01;;;;;;;;;;;;;;;26.87;11.41;99195.75;5058783;28;19916;-77
2023/03/29 06:13:30;;;;;;;;;;;;;;;27.04;11.25;99206.78;5059043;28;19916;-79
2023/03/29 06:15:56;;;;;;;;;;;;;;;27.14;11.63;99212.53;5058639;28;20391;-78
2023/03/29 06:18:22;;;;;;;;;;;;;;;27.27;11.09;99211.63;5058553;28;19938;-78
2023/03/29 06:20:50;;;;;;;;;;;;;;;27.40;11.23;99195.50;5075453;28;20004;-80
2023/03/29 06:23:16;;;;;;;;;;;;;;;27.53;11.09;99215.22;5058669;28;19916;-80
2023/03/29 06:25:43;;;;;;;;;;;;;;;27.59;10.98;99222.41;5058538;28;19919;-79
2023/03/29 06:28:08;;;;;;;;;;;;;;;27.51;10.89;99228.03;5058674;28;20383;-79
2023/03/29 06:30:34;;;;;;;;;;;;;;;27.59;10.51;99219.72;5075275;28;19920;-78
2023/03/29 06:33:01;;;;;;;;;;;;;;;27.61;11.11;99236.41;5075481;28;19923;-78
2023/03/29 06:35:26;;;;;;;;;;;;;;;27.70;10.66;99237.78;5058426;28;19959;-78
2023/03/29 06:37:52;;;;;;;;;;;;;;;27.80;10.52;99248.06;5058356;28;19974;-80
2023/03/29 06:40:18;;;;;;;;;;;;;;;27.88;10.68;99249.63;5058238;28;19916;-79
2023/03/29 06:42:44;;;;;;;;;;;;;;;27.94;10.67;99246.97;5058059;28;19916;-81
2023/03/29 06:45:09;;;;;;;;;;;;;;;27.37;10.98;99248.72;5075717;28;19920;-78
2023/03/29 06:47:34;;;;;;;;;;;;;;;27.50;10.87;99240.63;5075965;28;19920;-81
2023/03/29 06:50:00;;;;;;;;;;;;;;;27.58;10.58;99248.41;5075413;28;19966;-80
2023/03/29 06:52:25;;;;;;;;;;;;;;;27.74;10.85;99254.31;5058378;28;20333;-78
2023/03/29 06:54:51;;;;;;;;;;;;;;;27.89;10.30;99251.28;5092979;28;20434;-80
2023/03/29 06:57:16;;;;;;;;;;;;;;;28.01;10.10;99251.47;5074977;28;20418;-78
2023/03/29 06:59:41;;;;;;;;;;;;;;;28.14;10.28;99249.47;5093239;28;20306;-80
2023/03/29 07:02:08;;;;;;;;;;;;;;;28.31;10.11;99256.97;5074824;28;19970;-80
2023/03/29 07:04:33;;;;;;;;;;;;;;;28.50;9.75;99257.84;5074786;28;19916;-80
2023/03/29 07:07:02;;;;;;;;;;;;;;;28.73;9.76;99256.41;5053225;28;20307;-79
2023/03/29 07:09:28;;;;;;;;;;;;;;;28.94;9.66;99255.13;5058739;28;20383;-78
2023/03/29 07:11:54;;;;;;;;;;;;;;;29.18;9.34;99246.16;5059044;28;19923;-78
2023/03/29 07:14:20;;;;;;;;;;;;;;;29.35;9.23;99256.28;5058640;28;19998;-78
2023/03/29 07:16:45;;;;;;;;;;;;;;;29.64;8.98;99248.47;5075304;28;19965;-79
2023/03/29 07:19:11;;;;;;;;;;;;;;;29.97;8.67;99250.69;5075470;28;19917;-78
2023/03/29 07:21:36;;;;;;;;;;;;;;;30.34;8.61;99255.03;5058278;28;19928;-78
2023/03/29 07:24:03;;;;;;;;;;;;;;;30.89;8.32;99256.56;5075367;28;19982;-77
2023/03/29 07:26:29;;;;;;;;;;;;;;;31.49;8.13;99269.63;5058639;28;19970;-78
2023/03/29 07:28:55;;;;;;;;;;;;;;;32.24;7.87;99272.28;5075292;28;20350;-79
2023/03/29 07:31:20;;;;;;;;;;;;;;;32.11;7.86;99278.84;5058457;28;19938;-78
2023/03/29 07:33:48;;;;;;;;;;;;;;;33.93;7.14;99270.09;5076466;28;19924;-80
2023/03/29 07:36:14;;;;;;;;;;;;;;;35.35;6.22;99257.66;5058330;28;19916;-78
2023/03/29 07:38:39;;;;;;;;;;;;;;;34.02;6.85;99263.94;5058257;28;20353;-78
2023/03/29 07:41:05;;;;;;;;;;;;;;;34.97;6.11;99257.75;5076422;28;19920;-79
2023/03/29 07:43:30;;;;;;;;;;;;;;;35.73;5.77;99257.44;5058173;28;19916;-81
2023/03/29 07:45:59;;;;;;;;;;;;;;;35.03;5.96;99247.75;5075264;28;20009;-81
2023/03/29 07:48:24;;;;;;;;;;;;;;;35.35;6.03;99265.78;5058137;28;19921;-79
2023/03/29 07:50:50;;;;;;;;;;;;;;;34.54;6.41;99267.03;5074916;28;19923;-80
2023/03/29 07:53:15;;;;;;;;;;;;;;;33.78;6.43;99252.63;5075874;28;19920;-79
2023/03/29 07:55:46;;;;;;;;;;;;;;;32.85;7.01;99261.56;5075617;28;20306;-77
2023/03/29 07:58:12;;;;;;;;;;;;;;;32.37;7.38;99261.16;5076060;28;19916;-78
2023/03/29 08:00:38;;;;;;;;;;;;;;;32.05;7.53;99259.00;5075737;28;20338;-79
2023/03/29 08:03:03;;;;;;;;;;;;;;;32.16;7.47;99257.31;5057578;28;19917;-79
2023/03/29 08:05:28;;;;;;;;;;;;;;;32.19;7.53;99253.31;5074810;28;19916;-78
2023/03/29 08:07:53;;;;;;;;;;;;;;;32.37;7.47;99269.28;5072973;28;19951;-78
2023/03/29 08:10:19;;;;;;;;;;;;;;;30.98;8.33;99261.38;5096294;28;20351;-79
2023/03/29 08:12:45;;;;;;;;;;;;;;;30.08;8.41;99247.19;5077460;28;19966;-79
2023/03/29 08:15:12;;;;;;;;;;;;;;;29.05;8.83;99262.44;5094541;28;20398;-78
2023/03/29 08:17:37;;;;;;;;;;;;;;;28.51;8.99;99276.41;5092871;28;19916;-76
2023/03/29 08:20:04;;;;;;;;;;;;;;;28.94;8.78;99268.56;5094444;28;20415;-79
2023/03/29 08:22:31;;;;;;;;;;;;;;;28.72;8.86;99258.28;5077355;28;20307;-78
2023/03/29 08:24:56;;;;;;;;;;;;;;;28.80;8.96;99266.03;5094355;28;19916;-79
2023/03/29 08:27:21;;;;;;;;;;;;;;;27.72;9.75;99254.50;5077149;28;19927;-81
2023/03/29 08:29:47;;;;;;;;;;;;;;;27.25;9.76;99253.91;5079973;28;19919;-81
2023/03/29 08:32:14;;;;;;;;;;;;;;;27.34;9.83;99243.78;5097097;28;20231;-80
2023/03/29 08:34:39;;;;;;;;;;;;;;;27.33;9.34;99242.16;5080708;28;20338;-79
2023/03/29 08:37:05;;;;;;;;;;;;;;;26.69;10.20;99234.75;5080620;28;19915;-79
2023/03/29 08:39:31;;;;;;;;;;;;;;;26.21;10.34;99253.72;5080481;28;19965;-81
2023/03/29 08:42:15;;;;;;;;;;;;;;;25.80;10.86;99231.44;5097969;28;19922;-81
2023/03/29 08:45:01;;;;;;;;;;;;;;;26.12;10.26;99239.69;5097263;28;19923;-80
2023/03/29 08:47:26;;;;;;;;;;;;;;;25.95;10.67;99228.56;5097614;28;19922;-79
2023/03/29 08:49:52;;;;;;;;;;;;;;;25.99;10.35;99240.53;5115438;28;19916;-79
2023/03/29 08:52:20;;;;;;;;;;;;;;;26.05;10.21;99236.22;5080096;28;20379;-80
2023/03/29 08:54:46;;;;;;;;;;;;;;;26.44;10.36;99231.88;5080268;28;19923;-78
2023/03/29 08:57:21;;;;;;;;;;;;;;;26.79;10.31;99233.47;5080299;28;20395;-78
2023/03/29 08:59:48;;;;;;;;;;;;;;;27.31;9.98;99209.38;5096812;28;19916;-82
2023/03/29 09:02:15;;;;;;;;;;;;;;;27.53;9.92;99217.91;5097237;28;19957;-78
2023/03/29 09:04:41;;;;;;;;;;;;;;;27.42;9.70;99225.59;5079954;28;19923;-78
2023/03/29 09:07:09;;;;;;;;;;;;;;;26.96;9.90;99223.91;5096515;28;19920;-78
2023/03/29 09:09:35;;;;;;;;;;;;;;;26.48;10.14;99234.94;5079794;28;20053;-77
2023/03/29 09:12:10;;;;;;;;;;;;;;;26.21;10.18;99220.78;5080013;28;20377;-79
2023/03/29 09:14:56;;;;;;;;;;;;;;;25.77;10.30;99215.78;5079763;28;19967;-79
2023/03/29 09:17:42;;;;;;;;;;;;;;;25.44;10.39;99221.09;5079718;28;20383;-77
2023/03/29 09:20:19;;;;;;;;;;;;;;;26.00;10.26;99217.31;5100304;28;19916;-78
2023/03/29 09:22:54;;;;;;;;;;;;;;;26.11;10.56;99221.22;5096385;28;20018;-77
2023/03/29 09:25:20;;;;;;;;;;;;;;;25.35;10.56;99233.81;5096160;28;19916;-76
2023/03/29 09:28:04;;;;;;;;;;;;;;;25.68;10.70;99230.41;5115144;28;19922;-79
2023/03/29 09:30:45;;;;;;;;;;;;;;;26.13;10.44;99244.03;5096205;28;20062;-79
2023/03/29 09:33:10;;;;;;;;;;;;;;;25.77;10.72;99231.84;5096436;28;20374;-79
2023/03/29 09:35:55;;;;;;;;;;;;;;;25.95;10.51;99239.28;5114406;28;19916;-77
2023/03/29 09:38:20;;;;;;;;;;;;;;;26.35;10.81;99241.16;5096219;28;19994;-78
2023/03/29 09:40:51;;;;;;;;;;;;;;;26.65;10.38;99228.16;5096584;28;20374;-80
2023/03/29 09:43:17;;;;;;;;;;;;;;;26.80;10.53;99241.28;5096436;28;20463;-82
2023/03/29 09:45:51;;;;;;;;;;;;;;;26.99;10.13;99238.75;5114504;28;20010;-80
2023/03/29 09:48:16;;;;;;;;;;;;;;;27.20;10.31;99232.28;5079239;28;19916;-78
2023/03/29 09:50:42;;;;;;;;;;;;;;;27.29;10.37;99217.59;5096659;28;19927;-80
2023/03/29 09:53:08;;;;;;;;;;;;;;;27.35;10.02;99229.38;5079520;28;19916;-79
2023/03/29 09:55:35;;;;;;;;;;;;;;;27.32;10.12;99217.19;5080030;28;19916;-78
2023/03/29 09:58:01;;;;;;;;;;;;;;;27.35;9.83;99211.41;5079479;28;19969;-80
2023/03/29 10:00:26;;;;;;;;;;;;;;;27.36;10.04;99212.25;5096017;28;19916;-80
2023/03/29 10:02:51;;;;;;;;;;;;;;;27.18;10.10;99213.72;5096474;28;19920;-83
2023/03/29 10:05:17;;;;;;;;;;;;;;;27.29;9.65;99206.88;5095420;28;19916;-79
2023/03/29 10:07:53;;;;;;;;;;;;;;;27.27;10.31;99203.59;5078712;28;19930;-79
2023/03/29 10:10:31;;;;;;;;;;;;;;;27.29;9.85;99206.06;5078797;28;19922;-79
2023/03/29 10:12:58;;;;;;;;;;;;;;;27.17;10.18;99208.59;5095773;28;19916;-79
2023/03/29 10:15:25;;;;;;;;;;;;;;;27.25;9.82;99195.78;5078710;28;20391;-79
2023/03/29 10:17:55;;;;;;;;;;;;;;;27.08;10.33;99208.84;5078762;28;20014;-78
2023/03/29 10:20:23;;;;;;;;;;;;;;;26.97;10.31;99197.97;5078650;28;19942;-78
2023/03/29 10:22:53;;;;;;;;;;;;;;;26.98;9.95;99210.31;5095597;28;20010;-79
2023/03/29 10:25:18;;;;;;;;;;;;;;;26.87;10.26;99191.22;5095409;28;19919;-80
2023/03/29 10:27:44;;;;;;;;;;;;;;;26.76;10.56;99201.75;5113799;28;19927;-78
2023/03/29 10:30:11;;;;;;;;;;;;;;;26.62;10.77;99198.28;5078416;28;20015;-78
2023/03/29 10:32:37;;;;;;;;;;;;;;;26.45;10.63;99201.38;5095469;28;19947;-78
2023/03/29 10:35:05;;;;;;;;;;;;;;;26.27;10.06;99215.44;5078435;28;19970;-79
2023/03/29 10:37:30;;;;;;;;;;;;;;;25.99;10.18;99191.56;5095222;28;19915;-78
2023/03/29 10:39:56;;;;;;;;;;;;;;;25.76;10.57;99202.63;5077902;28;19915;-77
2023/03/29 10:42:22;;;;;;;;;;;;;;;25.53;10.44;99200.34;5095180;28;20351;-79
2023/03/29 10:44:56;;;;;;;;;;;;;;;25.31;10.78;99203.19;5078381;28;20375;-80
2023/03/29 10:47:22;;;;;;;;;;;;;;;25.09;11.00;99202.47;5113854;28;19923;-78
2023/03/29 10:49:51;;;;;;;;;;;;;;;24.83;11.22;99201.34;5078282;28;19924;-79
2023/03/29 10:52:16;;;;;;;;;;;;;;;24.62;11.04;99204.94;5113312;28;19922;-78
2023/03/29 10:54:42;;;;;;;;;;;;;;;24.34;11.33;99207.59;5078206;28;20348;-78
2023/03/29 10:57:09;;;;;;;;;;;;;;;24.12;11.48;99206.81;5078178;28;19916;-79
2023/03/29 10:59:37;;;;;;;;;;;;;;;23.91;11.74;99216.50;5078360;28;19922;-79
2023/03/29 11:02:15;;;;;;;;;;;;;;;23.72;11.71;99214.44;5095055;28;19927;-79
2023/03/29 11:04:59;;;;;;;;;;;;;;;23.49;11.96;99202.94;5094825;28;19920;-80
2023/03/29 11:07:27;;;;;;;;;;;;;;;23.40;11.85;99200.59;5094484;28;20388;-79
2023/03/29 11:10:02;;;;;;;;;;;;;;;23.30;12.10;99201.72;5095240;28;20397;-79
2023/03/29 11:12:30;;;;;;;;;;;;;;;23.15;12.09;99184.97;5095253;28;19985;-79
2023/03/29 11:15:02;;;;;;;;;;;;;;;22.96;12.48;99191.66;5094995;28;19955;-79
2023/03/29 11:17:27;;;;;;;;;;;;;;;22.91;12.35;99192.25;5095170;28;19920;-78
2023/03/29 11:19:54;;;;;;;;;;;;;;;22.74;12.63;99175.66;5094691;28;19916;-78
2023/03/29 11:22:24;;;;;;;;;;;;;;;22.67;12.68;99189.88;5094891;28;20381;-78
2023/03/29 11:25:10;;;;;;;;;;;;;;;22.52;12.43;99189.88;5077911;28;19916;-77
2023/03/29 11:27:53;;;;;;;;;;;;;;;22.37;12.80;99172.06;5094762;28;19928;-78
2023/03/29 11:30:27;;;;;;;;;;;;;;;22.14;12.77;99169.47;5094654;28;19943;-79
2023/03/29 11:33:11;;;;;;;;;;;;;;;21.92;13.12;99178.28;5112963;28;19927;-78
2023/03/29 11:36:06;;;;;;;;;;;;;;;21.69;13.23;99171.19;5113275;28;19923;-78
2023/03/29 11:38:34;;;;;;;;;;;;;;;21.49;13.39;99176.97;5013657;28;19917;-78
2023/03/29 11:41:20;;;;;;;;;;;;;;;21.37;13.52;99181.00;4997147;28;19960;-79
2023/03/29 11:43:48;;;;;;;;;;;;;;;21.20;13.79;99172.31;4997181;28;19982;-78
2023/03/29 11:46:19;;;;;;;;;;;;;;;21.04;13.80;99170.56;5013863;28;20297;-79
2023/03/29 11:49:07;;;;;;;;;;;;;;;20.91;13.75;99179.09;5013692;28;20402;-79
2023/03/29 11:51:43;;;;;;;;;;;;;;;20.80;14.16;99168.06;4936634;29;19929;-81
2023/03/29 11:54:16;;;;;;;;;;;;;;;20.63;13.82;99161.94;4939705;29;19919;-78
2023/03/29 11:56:53;;;;;;;;;;;;;;;20.43;13.90;99152.56;4955160;29;19919;-79
2023/03/29 11:59:22;;;;;;;;;;;;;;;20.27;14.16;99160.53;4939674;29;19922;-79
2023/03/29 12:01:54;;;;;;;;;;;;;;;20.18;14.39;99164.22;4955567;28;19919;-78
2023/03/29 12:04:27;;;;;;;;;;;;;;;20.10;14.52;99164.22;4939420;29;19962;-79
2023/03/29 12:07:13;;;;;;;;;;;;;;;19.97;14.56;99173.53;4939548;29;20050;-80
2023/03/29 12:09:46;;;;;;;;;;;;;;;19.84;14.56;99163.41;4916498;29;19963;-78
2023/03/29 12:12:14;;;;;;;;;;;;;;;19.77;14.45;99167.75;4901653;29;19919;-77
2023/03/29 12:14:42;;;;;;;;;;;;;;;19.66;14.67;99174.16;4916267;29;19965;-79
2023/03/29 12:17:08;;;;;;;;;;;;;;;19.57;14.84;99161.91;4955281;29;19961;-78
2023/03/29 12:19:34;;;;;;;;;;;;;;;19.50;14.94;99172.34;4939358;29;20413;-79
2023/03/29 12:22:00;;;;;;;;;;;;;;;19.42;15.09;99168.81;4939110;29;19989;-78
2023/03/29 12:24:26;;;;;;;;;;;;;;;19.31;15.02;99165.53;4923035;29;20385;-78
2023/03/29 12:26:52;;;;;;;;;;;;;;;19.26;15.05;99164.34;4923369;29;19919;-78
2023/03/29 12:29:17;;;;;;;;;;;;;;;19.13;14.99;99168.31;5002470;28;19921;-79
2023/03/29 12:31:52;;;;;;;;;;;;;;;19.06;15.17;99161.16;5013356;28;19929;-77
2023/03/29 12:34:20;;;;;;;;;;;;;;;18.93;15.07;99156.34;5013352;28;20021;-78
2023/03/29 12:36:51;;;;;;;;;;;;;;;18.88;15.15;99156.81;5013168;28;19918;-79
2023/03/29 12:39:17;;;;;;;;;;;;;;;18.80;15.21;99152.28;5013302;28;19968;-80
2023/03/29 12:41:47;;;;;;;;;;;;;;;18.80;15.49;99180.53;5012893;28;19921;-80
2023/03/29 12:44:13;;;;;;;;;;;;;;;18.74;15.57;99160.88;5012697;28;19928;-78
2023/03/29 12:46:39;;;;;;;;;;;;;;;18.69;15.71;99157.88;5027809;28;20314;-80
2023/03/29 12:49:14;;;;;;;;;;;;;;;18.67;15.77;99148.44;5115705;28;19916;-79
2023/03/29 12:51:40;;;;;;;;;;;;;;;18.61;15.85;99153.38;5081401;28;19923;-80
2023/03/29 12:54:15;;;;;;;;;;;;;;;18.60;16.06;99149.06;5097729;28;19922;-78